createdAt,value
2019-02-03T00:01:02.767Z,100941.63
2019-02-03T00:03:32.123Z,100943.78
2019-02-03T00:06:01.431Z,100941.61
2019-02-03T00:08:30.783Z,100938.98
2019-02-03T00:11:00.097Z,100931.59
2019-02-03T00:13:31.227Z,100938.55
2019-02-03T00:15:58.712Z,100935.93
2019-02-03T00:18:28.017Z,100931.56
2019-02-03T00:20:57.437Z,100930.28
2019-02-03T00:23:26.797Z,100934.58
2019-02-03T00:25:56.124Z,100931.54
2019-02-03T00:28:25.443Z,100930.25
2019-02-03T00:30:54.826Z,100934.58
2019-02-03T00:33:24.222Z,100942.39
2019-02-03T00:35:53.515Z,100946.76
2019-02-03T00:38:24.479Z,100949.80
2019-02-03T00:40:52.139Z,100951.11
2019-02-03T00:43:21.405Z,100951.97
2019-02-03T00:45:50.709Z,100954.58
2019-02-03T00:48:20.104Z,100958.47
2019-02-03T00:50:49.373Z,100960.23
2019-02-03T00:53:18.760Z,100974.12
2019-02-03T00:55:48.038Z,100966.73
2019-02-03T00:58:17.394Z,100967.59
2019-02-03T01:00:46.743Z,100967.15
2019-02-03T01:03:16.045Z,100972.82
2019-02-03T01:05:45.350Z,100974.55
2019-02-03T01:08:14.699Z,100973.27
2019-02-03T01:10:44.041Z,100979.78
2019-02-03T01:13:13.351Z,100981.97
2019-02-03T01:15:42.677Z,100987.62
2019-02-03T01:18:11.945Z,100984.12
2019-02-03T01:20:41.272Z,100984.99
2019-02-03T01:23:10.607Z,100989.78
2019-02-03T01:25:39.949Z,100997.16
2019-02-03T01:28:09.535Z,101011.06
2019-02-03T01:30:38.887Z,101015.00
2019-02-03T01:33:08.201Z,101021.11
2019-02-03T01:35:37.457Z,101022.84
2019-02-03T01:38:06.758Z,101023.25
2019-02-03T01:40:36.071Z,101022.81
2019-02-03T01:43:05.413Z,101030.63
2019-02-03T01:45:34.677Z,101041.50
2019-02-03T01:48:04.002Z,101050.19
2019-02-03T01:50:33.304Z,101048.44
2019-02-03T01:53:02.648Z,101058.45
2019-02-03T01:55:31.868Z,101059.35
2019-02-03T01:58:01.216Z,101063.24
2019-02-03T02:00:30.524Z,101069.34
2019-02-03T02:02:59.884Z,101076.73
2019-02-03T02:05:29.213Z,101075.04
2019-02-03T02:07:58.590Z,101086.80
2019-02-03T02:10:28.045Z,101092.43
2019-02-03T02:12:57.396Z,101094.59
2019-02-03T02:15:26.727Z,101091.13
2019-02-03T02:17:56.101Z,101087.20
2019-02-03T02:20:28.813Z,101094.16
2019-02-03T02:22:58.206Z,101099.80
2019-02-03T02:25:27.531Z,101099.80
2019-02-03T02:27:56.842Z,101104.16
2019-02-03T02:30:26.476Z,101094.14
2019-02-03T02:32:55.731Z,101106.33
2019-02-03T02:35:25.044Z,101105.85
2019-02-03T02:38:05.696Z,101103.70
2019-02-03T02:40:24.449Z,101105.40
2019-02-03T02:42:53.894Z,101102.80
2019-02-03T02:45:23.168Z,101109.32
2019-02-03T02:47:52.479Z,101100.63
2019-02-03T02:50:30.560Z,101105.84
2019-02-03T02:52:59.963Z,101111.95
2019-02-03T02:55:29.287Z,101108.05
2019-02-03T02:57:58.529Z,101116.74
2019-02-03T03:00:27.869Z,101111.99
2019-02-03T03:02:57.147Z,101116.31
2019-02-03T03:05:26.415Z,101116.76
2019-02-03T03:07:55.639Z,101120.66
2019-02-03T03:10:24.932Z,101115.48
2019-02-03T03:12:54.270Z,101115.03
2019-02-03T03:15:23.534Z,101111.99
2019-02-03T03:17:52.873Z,101103.29
2019-02-03T03:20:22.188Z,101091.13
2019-02-03T03:22:51.471Z,101091.56
2019-02-03T03:25:20.933Z,101088.50
2019-02-03T03:27:50.199Z,101088.50
2019-02-03T03:30:27.194Z,101088.97
2019-02-03T03:32:56.276Z,101096.34
2019-02-03T03:35:25.698Z,101116.74
2019-02-03T03:37:54.933Z,101128.48
2019-02-03T03:40:28.549Z,101135.88
2019-02-03T03:42:58.049Z,101146.78
2019-02-03T03:45:27.237Z,101158.92
2019-02-03T03:47:56.575Z,101167.65
2019-02-03T03:50:25.904Z,101182.41
2019-02-03T03:52:55.236Z,101189.33
2019-02-03T03:55:24.765Z,101191.08
2019-02-03T03:57:54.193Z,101192.84
2019-02-03T04:00:24.981Z,101191.95
2019-02-03T04:02:54.301Z,101194.13
2019-02-03T04:05:23.697Z,101205.84
2019-02-03T04:07:53.100Z,101216.72
2019-02-03T04:10:23.332Z,101219.34
2019-02-03T04:12:52.687Z,101211.45
2019-02-03T04:15:21.948Z,101204.08
2019-02-03T04:17:51.342Z,101208.39
2019-02-03T04:20:25.552Z,101209.27
2019-02-03T04:22:54.979Z,101206.23
2019-02-03T04:25:24.341Z,101214.45
2019-02-03T04:27:53.647Z,101217.50
2019-02-03T04:30:23.708Z,101214.02
2019-02-03T04:32:53.068Z,101210.95
2019-02-03T04:35:22.442Z,101207.05
2019-02-03T04:37:51.699Z,101214.45
2019-02-03T04:40:21.723Z,101221.42
2019-02-03T04:42:51.253Z,101225.80
2019-02-03T04:45:22.796Z,101237.95
2019-02-03T04:47:49.886Z,101232.23
2019-02-03T04:50:20.410Z,101236.19
2019-02-03T04:52:49.741Z,101233.10
2019-02-03T04:55:19.471Z,101250.53
2019-02-03T04:57:48.717Z,101259.70
2019-02-03T05:00:24.826Z,101251.00
2019-02-03T05:02:54.133Z,101247.97
2019-02-03T05:05:23.435Z,101254.02
2019-02-03T05:07:52.710Z,101255.70
2019-02-03T05:10:22.005Z,101257.00
2019-02-03T05:12:51.279Z,101262.20
2019-02-03T05:15:22.683Z,101256.09
2019-02-03T05:17:52.053Z,101253.53
2019-02-03T05:20:23.642Z,101254.81
2019-02-03T05:22:52.923Z,101259.12
2019-02-03T05:25:22.975Z,101267.37
2019-02-03T05:27:52.237Z,101265.60
2019-02-03T05:30:32.611Z,101268.59
2019-02-03T05:33:01.903Z,101268.09
2019-02-03T05:35:31.219Z,101278.10
2019-02-03T05:38:00.570Z,101284.53
2019-02-03T05:40:29.759Z,101283.20
2019-02-03T05:42:59.103Z,101284.05
2019-02-03T05:45:28.426Z,101299.62
2019-02-03T05:47:57.735Z,101292.22
2019-02-03T05:50:26.999Z,101296.94
2019-02-03T05:52:56.334Z,101303.02
2019-02-03T05:55:25.711Z,101302.52
2019-02-03T05:57:54.999Z,101299.42
2019-02-03T06:00:30.807Z,101305.50
2019-02-03T06:03:00.097Z,101307.70
2019-02-03T06:05:29.356Z,101309.90
2019-02-03T06:07:58.649Z,101311.17
2019-02-03T06:10:28.081Z,101324.23
2019-02-03T06:12:57.425Z,101314.23
2019-02-03T06:15:26.677Z,101323.36
2019-02-03T06:17:55.987Z,101327.61
2019-02-03T06:20:25.329Z,101333.28
2019-02-03T06:22:54.604Z,101335.42
2019-02-03T06:25:23.888Z,101341.03
2019-02-03T06:27:53.199Z,101354.45
2019-02-03T06:31:14.729Z,101355.72
2019-02-03T06:33:46.913Z,101367.88
2019-02-03T06:36:16.817Z,101373.02
2019-02-03T06:38:46.138Z,101391.27
2019-02-03T06:41:15.492Z,101392.18
2019-02-03T06:43:44.773Z,101392.17
2019-02-03T06:46:42.123Z,101400.89
2019-02-03T06:49:31.481Z,101405.27
2019-02-03T06:52:00.739Z,101409.22
2019-02-03T06:54:30.025Z,101420.14
2019-02-03T06:56:59.305Z,101418.88
2019-02-03T06:59:28.595Z,101424.05
2019-02-03T07:01:58.003Z,101424.95
2019-02-03T07:04:27.356Z,101440.66
2019-02-03T07:06:56.618Z,101444.56
2019-02-03T07:09:25.957Z,101451.55
2019-02-03T07:12:00.659Z,101463.70
2019-02-03T07:14:29.949Z,101477.28
2019-02-03T07:16:59.246Z,101480.28
2019-02-03T07:19:28.581Z,101478.55
2019-02-03T07:21:57.965Z,101476.41
2019-02-03T07:24:27.267Z,101484.23
2019-02-03T07:26:56.567Z,101486.44
2019-02-03T07:29:25.926Z,101502.47
2019-02-03T07:31:55.268Z,101501.23
2019-02-03T07:34:27.866Z,101504.67
2019-02-03T07:36:57.102Z,101505.19
2019-02-03T07:39:26.362Z,101519.45
2019-02-03T07:41:55.779Z,101518.94
2019-02-03T07:44:25.417Z,101516.33
2019-02-03T07:46:54.699Z,101517.63
2019-02-03T07:49:24.147Z,101526.75
2019-02-03T07:51:53.410Z,101526.75
2019-02-03T07:54:22.685Z,101546.69
2019-02-03T07:56:52.100Z,101544.52
2019-02-03T07:59:21.602Z,101543.22
2019-02-03T08:01:51.104Z,101542.38
2019-02-03T08:04:20.387Z,101551.07
2019-02-03T08:06:49.734Z,101545.34
2019-02-03T08:09:19.003Z,101552.84
2019-02-03T08:11:48.402Z,101557.19
2019-02-03T08:14:17.826Z,101559.36
2019-02-03T08:16:47.171Z,101565.13
2019-02-03T08:19:16.569Z,101574.64
2019-02-03T08:21:46.010Z,101572.47
2019-02-03T08:24:15.380Z,101572.63
2019-02-03T08:26:44.796Z,101577.05
2019-02-03T08:29:14.847Z,101564.84
2019-02-03T08:31:43.479Z,101574.48
2019-02-03T08:34:12.970Z,101577.91
2019-02-03T08:36:42.370Z,101587.55
2019-02-03T08:39:11.659Z,101592.81
2019-02-03T08:41:41.068Z,101598.21
2019-02-03T08:44:10.569Z,101605.64
2019-02-03T08:46:39.829Z,101596.95
2019-02-03T08:49:09.142Z,101589.55
2019-02-03T08:51:38.403Z,101594.91
2019-02-03T08:54:07.840Z,101602.27
2019-02-03T08:56:37.075Z,101599.59
2019-02-03T08:59:06.470Z,101600.96
2019-02-03T09:01:35.738Z,101598.39
2019-02-03T09:04:05.357Z,101593.61
2019-02-03T09:06:34.745Z,101589.73
2019-02-03T09:09:06.986Z,101591.94
2019-02-03T09:11:36.328Z,101590.33
2019-02-03T09:14:05.742Z,101592.08
2019-02-03T09:16:35.022Z,101586.35
2019-02-03T09:19:04.332Z,101594.22
2019-02-03T09:21:33.627Z,101595.15
2019-02-03T09:24:02.927Z,101605.22
2019-02-03T09:26:32.343Z,101605.38
2019-02-03T09:29:01.651Z,101607.55
2019-02-03T09:31:31.055Z,101612.49
2019-02-03T09:34:00.359Z,101612.20
2019-02-03T09:36:29.745Z,101624.82
2019-02-03T09:38:59.164Z,101626.19
2019-02-03T09:41:28.435Z,101630.24
2019-02-03T09:43:57.865Z,101634.57
2019-02-03T09:46:27.155Z,101648.55
2019-02-03T09:48:56.629Z,101647.30
2019-02-03T09:51:25.962Z,101649.05
2019-02-03T09:53:55.237Z,101661.83
2019-02-03T09:56:24.623Z,101666.57
2019-02-03T09:58:53.952Z,101682.59
2019-02-03T10:01:23.290Z,101681.27
2019-02-03T10:03:52.663Z,101687.96
2019-02-03T10:06:22.025Z,101688.55
2019-02-03T10:08:51.285Z,101695.94
2019-02-03T10:11:22.845Z,101706.80
2019-02-03T10:13:50.071Z,101707.75
2019-02-03T10:16:19.358Z,101716.11
2019-02-03T10:18:48.700Z,101717.97
2019-02-03T10:21:18.130Z,101724.55
2019-02-03T10:23:47.437Z,101725.47
2019-02-03T10:26:16.797Z,101725.95
2019-02-03T10:28:46.632Z,101730.24
2019-02-03T10:31:15.433Z,101732.34
2019-02-03T10:33:44.730Z,101739.00
2019-02-03T10:36:14.097Z,101742.55
2019-02-03T10:38:43.358Z,101738.13
2019-02-03T10:41:23.459Z,101741.23
2019-02-03T10:43:42.096Z,101745.24
2019-02-03T10:46:11.519Z,101739.70
2019-02-03T10:48:40.871Z,101740.55
2019-02-03T10:51:10.424Z,101735.34
2019-02-03T10:53:39.721Z,101736.64
2019-02-03T10:56:09.024Z,101743.11
2019-02-03T10:58:38.301Z,101744.95
2019-02-03T11:01:07.883Z,101755.81
2019-02-03T11:03:37.249Z,101747.44
2019-02-03T11:06:08.511Z,101748.42
2019-02-03T11:08:37.931Z,101742.47
2019-02-03T11:11:07.645Z,101746.33
2019-02-03T11:13:36.993Z,101745.64
2019-02-03T11:16:06.402Z,101749.10
2019-02-03T11:18:35.708Z,101742.13
2019-02-03T11:21:04.990Z,101737.31
2019-02-03T11:23:34.296Z,101742.56
2019-02-03T11:26:03.609Z,101738.73
2019-02-03T11:28:32.982Z,101741.72
2019-02-03T11:31:04.973Z,101739.20
2019-02-03T11:33:35.054Z,101744.05
2019-02-03T11:36:04.431Z,101754.53
2019-02-03T11:38:33.701Z,101747.05
2019-02-03T11:41:03.541Z,101753.68
2019-02-03T11:43:32.816Z,101757.64
2019-02-03T11:46:02.139Z,101755.05
2019-02-03T11:48:31.411Z,101761.69
2019-02-03T11:51:00.724Z,101763.95
2019-02-03T11:53:30.085Z,101768.33
2019-02-03T11:55:59.443Z,101764.39
2019-02-03T11:58:28.723Z,101763.52
2019-02-03T12:00:58.537Z,101762.20
2019-02-03T12:03:27.833Z,101770.06
2019-02-03T12:05:57.163Z,101777.05
2019-02-03T12:08:26.527Z,101771.78
2019-02-03T12:10:55.987Z,101776.99
2019-02-03T12:13:25.347Z,101781.81
2019-02-03T12:15:54.645Z,101776.99
2019-02-03T12:18:24.245Z,101778.36
2019-02-03T12:20:53.587Z,101779.66
2019-02-03T12:23:22.899Z,101783.17
2019-02-03T12:25:52.199Z,101787.98
2019-02-03T12:28:21.548Z,101793.70
2019-02-03T12:30:50.855Z,101785.36
2019-02-03T12:33:20.265Z,101782.29
2019-02-03T12:35:49.571Z,101782.29
2019-02-03T12:38:18.836Z,101791.48
2019-02-03T12:40:48.095Z,101791.48
2019-02-03T12:43:17.507Z,101793.61
2019-02-03T12:45:46.850Z,101782.59
2019-02-03T12:48:16.210Z,101793.17
2019-02-03T12:50:45.577Z,101789.74
2019-02-03T12:53:14.851Z,101803.67
2019-02-03T12:55:45.012Z,101800.90
2019-02-03T12:58:14.097Z,101801.30
2019-02-03T13:00:43.378Z,101799.17
2019-02-03T13:03:12.871Z,101803.97
2019-02-03T13:05:42.163Z,101813.67
2019-02-03T13:08:11.501Z,101814.56
2019-02-03T13:10:40.800Z,101822.31
2019-02-03T13:13:10.427Z,101826.22
2019-02-03T13:15:50.771Z,101820.98
2019-02-03T13:18:20.076Z,101820.35
2019-02-03T13:20:49.346Z,101820.35
2019-02-03T13:23:18.711Z,101833.63
2019-02-03T13:25:48.179Z,101842.25
2019-02-03T13:28:17.675Z,101842.25
2019-02-03T13:30:48.911Z,101849.26
2019-02-03T13:33:18.450Z,101854.91
2019-02-03T13:35:47.755Z,101855.36
2019-02-03T13:38:17.025Z,101850.98
2019-02-03T13:40:46.308Z,101860.56
2019-02-03T13:43:15.649Z,101856.66
2019-02-03T13:45:45.263Z,101860.17
2019-02-03T13:48:14.227Z,101869.37
2019-02-03T13:50:43.574Z,101867.63
2019-02-03T13:53:12.826Z,101882.49
2019-02-03T13:55:42.130Z,101873.77
2019-02-03T13:58:11.512Z,101881.64
2019-02-03T14:00:43.226Z,101884.70
2019-02-03T14:03:12.491Z,101886.85
2019-02-03T14:05:41.785Z,101894.30
2019-02-03T14:08:11.092Z,101891.69
2019-02-03T14:10:40.389Z,101894.75
2019-02-03T14:13:09.871Z,101900.44
2019-02-03T14:15:39.198Z,101903.56
2019-02-03T14:18:08.611Z,101897.28
2019-02-03T14:20:37.933Z,101895.81
2019-02-03T14:23:07.628Z,101897.75
2019-02-03T14:25:36.946Z,101906.48
2019-02-03T14:28:06.231Z,101900.38
2019-02-03T14:30:41.551Z,101909.84
2019-02-03T14:33:10.503Z,101922.37
2019-02-03T14:35:39.812Z,101922.37
2019-02-03T14:38:09.263Z,101922.36
2019-02-03T14:40:38.571Z,101926.27
2019-02-03T14:43:07.876Z,101925.85
2019-02-03T14:45:37.223Z,101917.53
2019-02-03T14:48:06.971Z,101922.78
2019-02-03T14:50:36.287Z,101930.16
2019-02-03T14:53:08.392Z,101929.26
2019-02-03T14:55:39.330Z,101935.41
2019-02-03T14:58:08.920Z,101933.61
2019-02-03T15:00:40.819Z,101937.95
2019-02-03T15:03:18.295Z,101941.86
2019-02-03T15:05:47.533Z,101942.67
2019-02-03T15:08:16.890Z,101952.65
2019-02-03T15:10:46.215Z,101955.73
2019-02-03T15:13:17.634Z,101958.76
2019-02-03T15:15:47.071Z,101958.72
2019-02-03T15:18:16.647Z,101962.21
2019-02-03T15:20:45.916Z,101964.41
2019-02-03T15:23:15.321Z,101963.06
2019-02-03T15:25:44.721Z,101974.84
2019-02-03T15:28:15.488Z,101976.98
2019-02-03T15:30:47.141Z,101969.53
2019-02-03T15:33:16.423Z,101974.77
2019-02-03T15:35:45.725Z,101972.11
2019-02-03T15:38:15.053Z,101979.59
2019-02-03T15:40:44.361Z,101984.36
2019-02-03T15:43:24.667Z,101983.48
2019-02-03T15:45:42.997Z,101980.84
2019-02-03T15:48:12.348Z,101987.38
2019-02-03T15:50:41.679Z,101993.92
2019-02-03T15:53:11.170Z,101997.39
2019-02-03T15:55:40.432Z,101991.69
2019-02-03T15:58:11.029Z,101992.59
2019-02-03T16:00:42.952Z,101998.25
2019-02-03T16:03:12.485Z,102006.95
2019-02-03T16:05:41.787Z,102015.30
2019-02-03T16:08:14.383Z,102015.28
2019-02-03T16:10:43.730Z,102016.56
2019-02-03T16:13:13.038Z,102014.88
2019-02-03T16:15:42.332Z,102019.65
2019-02-03T16:18:11.969Z,102018.75
2019-02-03T16:20:45.993Z,102031.44
2019-02-03T16:23:17.431Z,102039.30
2019-02-03T16:25:46.811Z,102041.92
2019-02-03T16:28:16.157Z,102044.92
2019-02-03T16:30:45.664Z,102051.00
2019-02-03T16:33:15.220Z,102053.13
2019-02-03T16:35:44.704Z,102060.95
2019-02-03T16:38:22.555Z,102067.94
2019-02-03T16:40:43.407Z,102070.97
2019-02-03T16:43:12.785Z,102069.66
2019-02-03T16:45:44.803Z,102078.34
2019-02-03T16:48:14.489Z,102085.73
2019-02-03T16:50:43.822Z,102085.73
2019-02-03T16:53:13.215Z,102092.69
2019-02-03T16:55:42.531Z,102101.82
2019-02-03T16:58:11.897Z,102107.47
2019-02-03T17:00:41.242Z,102106.56
2019-02-03T17:03:10.596Z,102107.84
2019-02-03T17:05:39.912Z,102117.87
2019-02-03T17:08:09.288Z,102114.33
2019-02-03T17:10:38.674Z,102126.44
2019-02-03T17:13:08.055Z,102128.12
2019-02-03T17:15:44.679Z,102138.55
2019-02-03T17:18:14.007Z,102138.48
2019-02-03T17:20:43.338Z,102138.88
2019-02-03T17:23:12.685Z,102140.95
2019-02-03T17:25:44.722Z,102146.52
2019-02-03T17:28:14.195Z,102152.54
2019-02-03T17:30:43.475Z,102159.44
2019-02-03T17:33:13.892Z,102166.80
2019-02-03T17:35:54.059Z,102164.03
2019-02-03T17:38:12.436Z,102172.27
2019-02-03T17:40:41.783Z,102168.73
2019-02-03T17:43:11.479Z,102171.23
2019-02-03T17:45:42.907Z,102180.72
2019-02-03T17:48:12.230Z,102184.11
2019-02-03T17:50:41.563Z,102179.23
2019-02-03T17:53:10.885Z,102188.30
2019-02-03T17:55:40.281Z,102195.65
2019-02-03T17:58:09.669Z,102203.98
2019-02-03T18:00:41.168Z,102203.11
2019-02-03T18:03:10.535Z,102206.54
2019-02-03T18:05:39.888Z,102222.95
2019-02-03T18:08:09.665Z,102211.95
2019-02-03T18:10:39.035Z,102216.98
2019-02-03T18:13:08.397Z,102212.96
2019-02-03T18:15:37.824Z,102220.63
2019-02-03T18:18:09.176Z,102223.09
2019-02-03T18:20:38.938Z,102229.30
2019-02-03T18:23:08.285Z,102230.06
2019-02-03T18:25:37.656Z,102232.24
2019-02-03T18:28:07.330Z,102242.58
2019-02-03T18:30:37.084Z,102242.58
2019-02-03T18:33:07.482Z,102249.49
2019-02-03T18:35:36.821Z,102255.62
2019-02-03T18:38:07.831Z,102256.39
2019-02-03T18:40:37.189Z,102254.64
2019-02-03T18:43:06.482Z,102262.42
2019-02-03T18:45:35.765Z,102260.20
2019-02-03T18:48:05.356Z,102272.05
2019-02-03T18:50:34.789Z,102268.64
2019-02-03T18:53:04.116Z,102274.30
2019-02-03T18:55:35.324Z,102276.96
2019-02-03T18:58:04.657Z,102285.80
2019-02-03T19:00:36.190Z,102286.28
2019-02-03T19:03:06.601Z,102285.34
2019-02-03T19:05:37.186Z,102282.30
2019-02-03T19:08:06.516Z,102291.00
2019-02-03T19:10:35.907Z,102287.14
2019-02-03T19:13:06.491Z,102289.31
2019-02-03T19:15:35.795Z,102290.25
2019-02-03T19:18:05.680Z,102298.47
2019-02-03T19:20:36.333Z,102304.19
2019-02-03T19:23:06.889Z,102307.66
2019-02-03T19:25:36.316Z,102308.53
2019-02-03T19:28:05.822Z,102314.03
2019-02-03T19:30:35.098Z,102316.95
2019-02-03T19:33:04.601Z,102319.56
2019-02-03T19:35:34.009Z,102314.66
2019-02-03T19:38:06.573Z,102326.36
2019-02-03T19:40:32.965Z,102323.61
2019-02-03T19:43:02.326Z,102327.97
2019-02-03T19:45:31.719Z,102322.99
2019-02-03T19:48:01.153Z,102330.76
2019-02-03T19:50:32.456Z,102329.90
2019-02-03T19:53:01.815Z,102329.77
2019-02-03T19:55:31.065Z,102330.03
2019-02-03T19:58:00.373Z,102331.25
2019-02-03T20:00:34.428Z,102336.42
2019-02-03T20:03:03.800Z,102333.31
2019-02-03T20:05:33.191Z,102341.13
2019-02-03T20:08:02.498Z,102346.34
2019-02-03T20:10:31.800Z,102342.02
2019-02-03T20:13:01.902Z,102347.23
2019-02-03T20:15:30.539Z,102364.11
2019-02-03T20:17:59.879Z,102366.67
2019-02-03T20:20:33.159Z,102371.39
2019-02-03T20:23:02.532Z,102369.06
2019-02-03T20:25:31.904Z,102374.53
2019-02-03T20:28:01.231Z,102380.53
2019-02-03T20:30:38.866Z,102383.88
2019-02-03T20:33:05.771Z,102388.08
2019-02-03T20:35:35.074Z,102392.27
2019-02-03T20:38:04.397Z,102395.63
2019-02-03T20:40:35.501Z,102401.19
2019-02-03T20:43:04.941Z,102402.44
2019-02-03T20:45:36.218Z,102408.16
2019-02-03T20:48:03.913Z,102409.02
2019-02-03T20:50:33.221Z,102414.67
2019-02-03T20:53:02.488Z,102414.89
2019-02-03T20:55:31.838Z,102415.09
2019-02-03T20:58:01.112Z,102416.77
2019-02-03T21:00:32.099Z,102415.84
2019-02-03T21:03:01.491Z,102422.79
2019-02-03T21:05:30.804Z,102426.70
2019-02-03T21:08:00.196Z,102428.80
2019-02-03T21:10:38.285Z,102431.84
2019-02-03T21:13:11.789Z,102433.44
2019-02-03T21:15:37.383Z,102434.21
2019-02-03T21:18:07.941Z,102442.83
2019-02-03T21:20:36.082Z,102448.95
2019-02-03T21:23:05.435Z,102454.56
2019-02-03T21:25:34.676Z,102453.19
2019-02-03T21:28:04.044Z,102463.72
2019-02-03T21:30:35.386Z,102464.57
2019-02-03T21:33:04.950Z,102467.55
2019-02-03T21:35:34.466Z,102478.23
2019-02-03T21:38:07.110Z,102481.48
2019-02-03T21:40:36.413Z,102486.61
2019-02-03T21:43:05.767Z,102489.04
2019-02-03T21:45:44.477Z,102486.34
2019-02-03T21:48:05.176Z,102488.94
2019-02-03T21:50:34.579Z,102493.38
2019-02-03T21:53:03.881Z,102487.73
2019-02-03T21:55:38.358Z,102491.64
2019-02-03T21:58:07.512Z,102492.13
2019-02-03T22:00:36.759Z,102493.06
2019-02-03T22:03:06.112Z,102493.06
2019-02-03T22:05:35.682Z,102486.56
2019-02-03T22:08:05.295Z,102492.85
2019-02-03T22:10:36.448Z,102491.63
2019-02-03T22:13:06.070Z,102487.80
2019-02-03T22:15:35.453Z,102493.89
2019-02-03T22:18:04.787Z,102499.98
2019-02-03T22:20:34.162Z,102492.88
2019-02-03T22:23:03.710Z,102500.97
2019-02-03T22:25:33.187Z,102497.80
2019-02-03T22:28:02.375Z,102500.70
2019-02-03T22:30:36.373Z,102500.19
2019-02-03T22:33:05.975Z,102499.23
2019-02-03T22:35:37.577Z,102499.59
2019-02-03T22:38:07.767Z,102503.06
2019-02-03T22:40:37.087Z,102498.41
2019-02-03T22:43:06.470Z,102507.84
2019-02-03T22:45:35.810Z,102511.13
2019-02-03T22:48:05.998Z,102512.27
2019-02-03T22:50:35.302Z,102517.77
2019-02-03T22:53:04.572Z,102518.63
2019-02-03T22:55:33.913Z,102522.09
2019-02-03T22:58:03.197Z,102523.27
2019-02-03T23:01:05.157Z,102524.13
2019-02-03T23:03:46.817Z,102527.95
2019-02-03T23:06:16.077Z,102535.72
2019-02-03T23:08:45.457Z,102531.20
2019-02-03T23:11:14.778Z,102525.45
2019-02-03T23:13:44.098Z,102531.88
2019-02-03T23:16:18.257Z,102533.64
2019-02-03T23:18:42.829Z,102537.38
2019-02-03T23:21:12.082Z,102541.20
2019-02-03T23:23:41.366Z,102540.17
2019-02-03T23:26:10.642Z,102554.05
2019-02-03T23:28:43.146Z,102543.50
2019-02-03T23:31:12.414Z,102551.39
2019-02-03T23:33:41.735Z,102548.84
2019-02-03T23:36:11.075Z,102547.90
2019-02-03T23:38:43.360Z,102553.05
2019-02-03T23:41:12.745Z,102551.23
2019-02-03T23:43:42.021Z,102560.69
2019-02-03T23:46:13.337Z,102557.99
2019-02-03T23:48:40.725Z,102559.05
2019-02-03T23:51:10.053Z,102559.33
2019-02-03T23:53:39.435Z,102568.45
2019-02-03T23:56:08.754Z,102562.69
2019-02-03T23:58:38.028Z,102569.98
